sensor_id;sensor_type;location;lat;lon;timestamp;temperature;humidity
25320;DHT22;13256;49.012;8.610;2023-01-09T00:01:20;8.70;99.90
25320;DHT22;13256;49.012;8.610;2023-01-09T00:03:49;8.60;99.90
25320;DHT22;13256;49.012;8.610;2023-01-09T00:06:16;8.60;99.90
25320;DHT22;13256;49.012;8.610;2023-01-09T00:08:42;8.60;99.90
25320;DHT22;13256;49.012;8.610;2023-01-09T00:11:09;8.60;99.90
25320;DHT22;13256;49.012;8.610;2023-01-09T00:13:37;8.60;99.90
25320;DHT22;13256;49.012;8.610;2023-01-09T00:16:05;8.60;99.90
25320;DHT22;13256;49.012;8.610;2023-01-09T00:18:34;8.60;99.90
25320;DHT22;13256;49.012;8.610;2023-01-09T00:21:02;8.60;99.90
25320;DHT22;13256;49.012;8.610;2023-01-09T00:23:30;8.60;99.90
25320;DHT22;13256;49.012;8.610;2023-01-09T00:26:06;8.60;99.90
25320;DHT22;13256;49.012;8.610;2023-01-09T00:28:34;8.50;99.90
25320;DHT22;13256;49.012;8.610;2023-01-09T00:31:08;8.50;99.90
25320;DHT22;13256;49.012;8.610;2023-01-09T00:33:39;8.50;99.90
25320;DHT22;13256;49.012;8.610;2023-01-09T00:36:06;8.50;99.90
25320;DHT22;13256;49.012;8.610;2023-01-09T00:38:35;8.50;99.90
25320;DHT22;13256;49.012;8.610;2023-01-09T00:41:05;8.50;99.90
25320;DHT22;13256;49.012;8.610;2023-01-09T00:43:36;8.50;99.90
25320;DHT22;13256;49.012;8.610;2023-01-09T00:46:08;8.40;99.90
25320;DHT22;13256;49.012;8.610;2023-01-09T00:48:38;8.50;99.90
25320;DHT22;13256;49.012;8.610;2023-01-09T00:51:05;8.50;99.90
25320;DHT22;13256;49.012;8.610;2023-01-09T00:53:35;8.50;99.90
25320;DHT22;13256;49.012;8.610;2023-01-09T00:56:06;8.50;99.90
25320;DHT22;13256;49.012;8.610;2023-01-09T00:58:34;8.50;99.90
25320;DHT22;13256;49.012;8.610;2023-01-09T01:01:01;8.50;99.90
25320;DHT22;13256;49.012;8.610;2023-01-09T01:03:30;8.50;99.90
25320;DHT22;13256;49.012;8.610;2023-01-09T01:05:58;8.50;99.90
25320;DHT22;13256;49.012;8.610;2023-01-09T01:08:44;8.60;99.90
25320;DHT22;13256;49.012;8.610;2023-01-09T01:11:11;8.60;99.90
25320;DHT22;13256;49.012;8.610;2023-01-09T01:13:40;8.60;99.90
25320;DHT22;13256;49.012;8.610;2023-01-09T01:16:09;8.60;99.90
25320;DHT22;13256;49.012;8.610;2023-01-09T01:18:37;8.70;99.90
25320;DHT22;13256;49.012;8.610;2023-01-09T01:21:08;8.70;99.90
25320;DHT22;13256;49.012;8.610;2023-01-09T01:23:36;8.70;99.90
25320;DHT22;13256;49.012;8.610;2023-01-09T01:26:05;8.70;99.90
25320;DHT22;13256;49.012;8.610;2023-01-09T01:28:33;8.80;99.90
25320;DHT22;13256;49.012;8.610;2023-01-09T01:31:03;8.90;99.90
25320;DHT22;13256;49.012;8.610;2023-01-09T01:33:31;8.80;99.90
25320;DHT22;13256;49.012;8.610;2023-01-09T01:36:06;8.90;99.90
25320;DHT22;13256;49.012;8.610;2023-01-09T01:39:01;8.90;99.90
25320;DHT22;13256;49.012;8.610;2023-01-09T01:41:28;8.90;99.90
25320;DHT22;13256;49.012;8.610;2023-01-09T01:44:01;8.90;99.90
25320;DHT22;13256;49.012;8.610;2023-01-09T01:46:30;8.80;99.90
25320;DHT22;13256;49.012;8.610;2023-01-09T01:49:10;8.90;99.90
25320;DHT22;13256;49.012;8.610;2023-01-09T01:51:46;8.80;99.90
25320;DHT22;13256;49.012;8.610;2023-01-09T01:54:23;8.90;99.90
25320;DHT22;13256;49.012;8.610;2023-01-09T01:56:55;8.90;99.90
25320;DHT22;13256;49.012;8.610;2023-01-09T01:59:32;8.90;99.90
25320;DHT22;13256;49.012;8.610;2023-01-09T02:02:03;8.90;99.90
25320;DHT22;13256;49.012;8.610;2023-01-09T02:04:34;8.90;99.90
25320;DHT22;13256;49.012;8.610;2023-01-09T02:07:06;8.90;99.90
25320;DHT22;13256;49.012;8.610;2023-01-09T02:09:33;8.90;99.90
25320;DHT22;13256;49.012;8.610;2023-01-09T02:12:14;8.90;99.90
25320;DHT22;13256;49.012;8.610;2023-01-09T02:14:41;8.90;99.90
25320;DHT22;13256;49.012;8.610;2023-01-09T02:19:59;8.90;99.90
25320;DHT22;13256;49.012;8.610;2023-01-09T02:33:14;8.90;99.90
25320;DHT22;13256;49.012;8.610;2023-01-09T02:46:47;9.00;99.90
25320;DHT22;13256;49.012;8.610;2023-01-09T02:49:17;9.00;99.90
25320;DHT22;13256;49.012;8.610;2023-01-09T02:52:26;9.00;99.90
25320;DHT22;13256;49.012;8.610;2023-01-09T03:02:48;9.20;99.90
25320;DHT22;13256;49.012;8.610;2023-01-09T03:05:30;9.10;99.90
25320;DHT22;13256;49.012;8.610;2023-01-09T03:08:02;9.10;99.90
25320;DHT22;13256;49.012;8.610;2023-01-09T03:10:53;9.00;99.90
25320;DHT22;13256;49.012;8.610;2023-01-09T03:13:24;8.90;99.90
25320;DHT22;13256;49.012;8.610;2023-01-09T03:15:54;8.80;99.90
25320;DHT22;13256;49.012;8.610;2023-01-09T03:18:25;8.50;99.90
25320;DHT22;13256;49.012;8.610;2023-01-09T03:20:55;8.40;99.90
25320;DHT22;13256;49.012;8.610;2023-01-09T03:23:24;8.20;99.90
25320;DHT22;13256;49.012;8.610;2023-01-09T03:25:53;8.10;99.90
25320;DHT22;13256;49.012;8.610;2023-01-09T03:28:29;8.00;99.90
25320;DHT22;13256;49.012;8.610;2023-01-09T03:30:56;8.00;99.90
25320;DHT22;13256;49.012;8.610;2023-01-09T03:33:23;7.90;99.90
25320;DHT22;13256;49.012;8.610;2023-01-09T03:35:49;7.80;99.90
25320;DHT22;13256;49.012;8.610;2023-01-09T03:38:21;7.80;99.90
25320;DHT22;13256;49.012;8.610;2023-01-09T03:40:48;7.80;99.90
25320;DHT22;13256;49.012;8.610;2023-01-09T03:43:18;7.70;99.90
25320;DHT22;13256;49.012;8.610;2023-01-09T03:45:45;7.70;99.90
25320;DHT22;13256;49.012;8.610;2023-01-09T03:48:12;7.70;99.90
25320;DHT22;13256;49.012;8.610;2023-01-09T03:50:38;7.60;99.90
25320;DHT22;13256;49.012;8.610;2023-01-09T03:53:15;7.60;99.90
25320;DHT22;13256;49.012;8.610;2023-01-09T03:55:48;7.60;99.90
25320;DHT22;13256;49.012;8.610;2023-01-09T03:58:16;7.60;99.90
25320;DHT22;13256;49.012;8.610;2023-01-09T04:00:44;7.50;99.90
25320;DHT22;13256;49.012;8.610;2023-01-09T04:03:11;7.50;99.90
25320;DHT22;13256;49.012;8.610;2023-01-09T04:05:40;7.50;99.90
25320;DHT22;13256;49.012;8.610;2023-01-09T04:08:09;7.50;99.90
25320;DHT22;13256;49.012;8.610;2023-01-09T04:10:38;7.50;99.90
25320;DHT22;13256;49.012;8.610;2023-01-09T04:13:05;7.50;99.90
25320;DHT22;13256;49.012;8.610;2023-01-09T04:15:31;7.50;99.90
25320;DHT22;13256;49.012;8.610;2023-01-09T04:18:00;7.50;99.90
25320;DHT22;13256;49.012;8.610;2023-01-09T04:20:27;7.50;99.90
25320;DHT22;13256;49.012;8.610;2023-01-09T04:22:55;7.40;99.90
25320;DHT22;13256;49.012;8.610;2023-01-09T04:25:23;7.40;99.90
25320;DHT22;13256;49.012;8.610;2023-01-09T04:27:51;7.40;99.90
25320;DHT22;13256;49.012;8.610;2023-01-09T04:30:23;7.40;99.90
25320;DHT22;13256;49.012;8.610;2023-01-09T04:32:53;7.40;99.90
25320;DHT22;13256;49.012;8.610;2023-01-09T04:35:22;7.30;99.90
25320;DHT22;13256;49.012;8.610;2023-01-09T04:37:49;7.30;99.90
25320;DHT22;13256;49.012;8.610;2023-01-09T04:40:17;7.30;99.90
25320;DHT22;13256;49.012;8.610;2023-01-09T04:42:48;7.30;99.90
25320;DHT22;13256;49.012;8.610;2023-01-09T04:45:17;7.30;99.90
25320;DHT22;13256;49.012;8.610;2023-01-09T04:47:46;7.40;99.90
25320;DHT22;13256;49.012;8.610;2023-01-09T04:50:16;7.40;99.90
25320;DHT22;13256;49.012;8.610;2023-01-09T04:52:43;7.40;99.90
25320;DHT22;13256;49.012;8.610;2023-01-09T04:55:10;7.50;99.90
25320;DHT22;13256;49.012;8.610;2023-01-09T04:57:39;7.50;99.90
25320;DHT22;13256;49.012;8.610;2023-01-09T05:00:08;7.50;99.90
25320;DHT22;13256;49.012;8.610;2023-01-09T05:02:37;7.50;99.90
25320;DHT22;13256;49.012;8.610;2023-01-09T05:05:04;7.50;99.90
25320;DHT22;13256;49.012;8.610;2023-01-09T05:07:38;7.50;99.90
25320;DHT22;13256;49.012;8.610;2023-01-09T05:10:05;7.50;99.90
25320;DHT22;13256;49.012;8.610;2023-01-09T05:12:32;7.40;99.90
25320;DHT22;13256;49.012;8.610;2023-01-09T05:15:02;7.50;99.90
25320;DHT22;13256;49.012;8.610;2023-01-09T05:17:29;7.50;99.90
25320;DHT22;13256;49.012;8.610;2023-01-09T05:19:56;7.50;99.90
25320;DHT22;13256;49.012;8.610;2023-01-09T05:22:22;7.50;99.90
25320;DHT22;13256;49.012;8.610;2023-01-09T05:24:49;7.40;99.90
25320;DHT22;13256;49.012;8.610;2023-01-09T05:27:16;7.40;99.90
25320;DHT22;13256;49.012;8.610;2023-01-09T05:29:43;7.30;99.90
25320;DHT22;13256;49.012;8.610;2023-01-09T05:32:11;7.30;99.90
25320;DHT22;13256;49.012;8.610;2023-01-09T05:34:38;7.30;99.90
25320;DHT22;13256;49.012;8.610;2023-01-09T05:37:05;7.30;99.90
25320;DHT22;13256;49.012;8.610;2023-01-09T05:39:34;7.30;99.90
25320;DHT22;13256;49.012;8.610;2023-01-09T05:42:01;7.30;99.90
25320;DHT22;13256;49.012;8.610;2023-01-09T05:44:27;7.30;99.90
25320;DHT22;13256;49.012;8.610;2023-01-09T05:46:56;7.30;99.90
25320;DHT22;13256;49.012;8.610;2023-01-09T05:49:23;7.30;99.90
25320;DHT22;13256;49.012;8.610;2023-01-09T05:51:52;7.30;99.90
25320;DHT22;13256;49.012;8.610;2023-01-09T05:54:21;7.30;99.90
25320;DHT22;13256;49.012;8.610;2023-01-09T05:56:52;7.20;99.90
25320;DHT22;13256;49.012;8.610;2023-01-09T05:59:19;7.10;99.90
25320;DHT22;13256;49.012;8.610;2023-01-09T06:01:45;7.10;99.90
25320;DHT22;13256;49.012;8.610;2023-01-09T06:04:12;7.20;99.90
25320;DHT22;13256;49.012;8.610;2023-01-09T06:06:39;7.10;99.90
25320;DHT22;13256;49.012;8.610;2023-01-09T06:09:08;7.20;99.90
25320;DHT22;13256;49.012;8.610;2023-01-09T06:11:37;7.20;99.90
25320;DHT22;13256;49.012;8.610;2023-01-09T06:14:05;7.20;99.90
25320;DHT22;13256;49.012;8.610;2023-01-09T06:16:32;7.20;99.90
25320;DHT22;13256;49.012;8.610;2023-01-09T06:18:58;7.30;99.90
25320;DHT22;13256;49.012;8.610;2023-01-09T06:21:25;7.20;99.90
25320;DHT22;13256;49.012;8.610;2023-01-09T06:23:57;7.20;99.90
25320;DHT22;13256;49.012;8.610;2023-01-09T06:26:25;7.30;99.90
25320;DHT22;13256;49.012;8.610;2023-01-09T06:28:52;7.30;99.90
25320;DHT22;13256;49.012;8.610;2023-01-09T06:31:24;7.30;99.90
25320;DHT22;13256;49.012;8.610;2023-01-09T06:33:51;7.30;99.90
25320;DHT22;13256;49.012;8.610;2023-01-09T06:36:18;7.40;99.90
25320;DHT22;13256;49.012;8.610;2023-01-09T06:38:49;7.40;99.90
25320;DHT22;13256;49.012;8.610;2023-01-09T06:41:16;7.40;99.90
25320;DHT22;13256;49.012;8.610;2023-01-09T06:43:47;7.40;99.90
25320;DHT22;13256;49.012;8.610;2023-01-09T06:46:16;7.50;99.90
25320;DHT22;13256;49.012;8.610;2023-01-09T06:48:44;7.50;99.90
25320;DHT22;13256;49.012;8.610;2023-01-09T06:51:12;7.50;99.90
25320;DHT22;13256;49.012;8.610;2023-01-09T06:53:39;7.50;99.90
25320;DHT22;13256;49.012;8.610;2023-01-09T06:56:06;7.60;99.90
25320;DHT22;13256;49.012;8.610;2023-01-09T06:58:35;7.60;99.90
25320;DHT22;13256;49.012;8.610;2023-01-09T07:01:05;7.70;99.90
25320;DHT22;13256;49.012;8.610;2023-01-09T07:03:32;7.70;99.90
25320;DHT22;13256;49.012;8.610;2023-01-09T07:06:00;7.70;99.90
25320;DHT22;13256;49.012;8.610;2023-01-09T07:08:26;7.70;99.90
25320;DHT22;13256;49.012;8.610;2023-01-09T07:10:53;7.70;99.90
25320;DHT22;13256;49.012;8.610;2023-01-09T07:13:19;7.70;99.90
25320;DHT22;13256;49.012;8.610;2023-01-09T07:15:46;7.70;99.90
25320;DHT22;13256;49.012;8.610;2023-01-09T07:18:15;7.80;99.90
25320;DHT22;13256;49.012;8.610;2023-01-09T07:20:41;7.80;99.90
25320;DHT22;13256;49.012;8.610;2023-01-09T07:23:10;7.80;99.90
25320;DHT22;13256;49.012;8.610;2023-01-09T07:25:39;7.80;99.90
25320;DHT22;13256;49.012;8.610;2023-01-09T07:28:07;7.80;99.90
25320;DHT22;13256;49.012;8.610;2023-01-09T07:30:36;7.90;99.90
25320;DHT22;13256;49.012;8.610;2023-01-09T07:33:05;7.90;99.90
25320;DHT22;13256;49.012;8.610;2023-01-09T07:35:34;7.90;99.90
25320;DHT22;13256;49.012;8.610;2023-01-09T07:38:03;7.90;99.90
25320;DHT22;13256;49.012;8.610;2023-01-09T07:40:30;7.90;99.90
25320;DHT22;13256;49.012;8.610;2023-01-09T07:42:57;7.90;99.90
25320;DHT22;13256;49.012;8.610;2023-01-09T07:45:23;7.90;99.90
25320;DHT22;13256;49.012;8.610;2023-01-09T07:47:50;7.90;99.90
25320;DHT22;13256;49.012;8.610;2023-01-09T07:50:18;7.80;99.90
25320;DHT22;13256;49.012;8.610;2023-01-09T07:52:45;7.90;99.90
25320;DHT22;13256;49.012;8.610;2023-01-09T07:55:12;7.90;99.90
25320;DHT22;13256;49.012;8.610;2023-01-09T07:57:46;7.90;99.90
25320;DHT22;13256;49.012;8.610;2023-01-09T08:00:13;7.90;99.90
25320;DHT22;13256;49.012;8.610;2023-01-09T08:02:44;7.90;99.90
25320;DHT22;13256;49.012;8.610;2023-01-09T08:05:11;7.90;99.90
25320;DHT22;13256;49.012;8.610;2023-01-09T08:07:40;7.90;99.90
25320;DHT22;13256;49.012;8.610;2023-01-09T08:10:10;7.80;99.90
25320;DHT22;13256;49.012;8.610;2023-01-09T08:12:42;7.80;99.90
25320;DHT22;13256;49.012;8.610;2023-01-09T08:15:37;7.80;99.90
25320;DHT22;13256;49.012;8.610;2023-01-09T08:18:10;7.90;99.90
25320;DHT22;13256;49.012;8.610;2023-01-09T08:20:41;7.90;99.90
25320;DHT22;13256;49.012;8.610;2023-01-09T08:23:09;7.90;99.90
25320;DHT22;13256;49.012;8.610;2023-01-09T08:25:43;8.00;99.90
25320;DHT22;13256;49.012;8.610;2023-01-09T08:28:10;8.00;99.90
25320;DHT22;13256;49.012;8.610;2023-01-09T08:30:40;8.00;99.90
25320;DHT22;13256;49.012;8.610;2023-01-09T08:33:07;8.00;99.90
25320;DHT22;13256;49.012;8.610;2023-01-09T08:35:43;8.00;99.90
25320;DHT22;13256;49.012;8.610;2023-01-09T08:38:10;8.10;99.90
25320;DHT22;13256;49.012;8.610;2023-01-09T08:40:38;8.10;99.90
25320;DHT22;13256;49.012;8.610;2023-01-09T08:43:08;8.10;99.90
25320;DHT22;13256;49.012;8.610;2023-01-09T08:45:56;8.10;99.90
25320;DHT22;13256;49.012;8.610;2023-01-09T08:48:45;8.20;99.90
25320;DHT22;13256;49.012;8.610;2023-01-09T08:51:13;8.10;99.90
25320;DHT22;13256;49.012;8.610;2023-01-09T08:53:42;8.20;99.90
25320;DHT22;13256;49.012;8.610;2023-01-09T08:56:13;8.30;99.90
25320;DHT22;13256;49.012;8.610;2023-01-09T08:58:41;8.30;99.90
25320;DHT22;13256;49.012;8.610;2023-01-09T09:01:12;8.30;99.90
25320;DHT22;13256;49.012;8.610;2023-01-09T09:03:43;8.40;99.90
25320;DHT22;13256;49.012;8.610;2023-01-09T09:06:13;8.50;99.90
25320;DHT22;13256;49.012;8.610;2023-01-09T09:08:43;8.50;99.90
25320;DHT22;13256;49.012;8.610;2023-01-09T09:11:11;8.50;99.90
25320;DHT22;13256;49.012;8.610;2023-01-09T09:13:41;8.60;99.90
25320;DHT22;13256;49.012;8.610;2023-01-09T09:16:07;8.50;99.90
25320;DHT22;13256;49.012;8.610;2023-01-09T09:18:34;8.50;99.90
25320;DHT22;13256;49.012;8.610;2023-01-09T09:21:03;8.60;99.90
25320;DHT22;13256;49.012;8.610;2023-01-09T09:23:30;8.50;99.90
25320;DHT22;13256;49.012;8.610;2023-01-09T09:25:59;8.60;99.90
25320;DHT22;13256;49.012;8.610;2023-01-09T09:28:28;8.70;99.90
25320;DHT22;13256;49.012;8.610;2023-01-09T09:30:55;8.70;99.90
25320;DHT22;13256;49.012;8.610;2023-01-09T09:33:22;8.70;99.90
25320;DHT22;13256;49.012;8.610;2023-01-09T09:35:49;8.70;99.90
25320;DHT22;13256;49.012;8.610;2023-01-09T09:38:16;8.70;99.90
25320;DHT22;13256;49.012;8.610;2023-01-09T09:43:57;8.80;99.90
25320;DHT22;13256;49.012;8.610;2023-01-09T09:47:01;8.80;99.90
25320;DHT22;13256;49.012;8.610;2023-01-09T09:49:37;8.80;99.90
25320;DHT22;13256;49.012;8.610;2023-01-09T09:54:50;8.90;99.90
25320;DHT22;13256;49.012;8.610;2023-01-09T09:57:24;8.90;99.90
25320;DHT22;13256;49.012;8.610;2023-01-09T09:59:55;8.90;99.90
25320;DHT22;13256;49.012;8.610;2023-01-09T10:05:04;9.00;99.90
25320;DHT22;13256;49.012;8.610;2023-01-09T10:07:41;9.00;99.90
25320;DHT22;13256;49.012;8.610;2023-01-09T10:10:40;9.10;99.90
25320;DHT22;13256;49.012;8.610;2023-01-09T10:13:16;9.10;99.90
25320;DHT22;13256;49.012;8.610;2023-01-09T10:16:31;9.10;99.90
25320;DHT22;13256;49.012;8.610;2023-01-09T10:19:05;9.20;99.90
25320;DHT22;13256;49.012;8.610;2023-01-09T10:21:51;9.20;99.90
25320;DHT22;13256;49.012;8.610;2023-01-09T10:24:40;9.20;99.90
25320;DHT22;13256;49.012;8.610;2023-01-09T10:30:00;9.30;99.90
25320;DHT22;13256;49.012;8.610;2023-01-09T10:35:18;9.30;99.90
25320;DHT22;13256;49.012;8.610;2023-01-09T10:37:49;9.30;99.90
25320;DHT22;13256;49.012;8.610;2023-01-09T10:40:26;9.20;99.90
25320;DHT22;13256;49.012;8.610;2023-01-09T10:42:59;9.30;99.90
25320;DHT22;13256;49.012;8.610;2023-01-09T10:45:50;9.30;99.90
25320;DHT22;13256;49.012;8.610;2023-01-09T10:50:57;9.30;99.90
25320;DHT22;13256;49.012;8.610;2023-01-09T10:53:38;9.30;99.90
25320;DHT22;13256;49.012;8.610;2023-01-09T10:56:28;9.30;99.90
25320;DHT22;13256;49.012;8.610;2023-01-09T10:58:56;9.20;99.90
25320;DHT22;13256;49.012;8.610;2023-01-09T11:01:29;9.20;99.90
25320;DHT22;13256;49.012;8.610;2023-01-09T11:03:56;9.20;99.90
25320;DHT22;13256;49.012;8.610;2023-01-09T11:06:59;9.20;99.90
25320;DHT22;13256;49.012;8.610;2023-01-09T11:09:27;9.20;99.90
25320;DHT22;13256;49.012;8.610;2023-01-09T11:12:29;9.20;99.90
25320;DHT22;13256;49.012;8.610;2023-01-09T11:18:18;9.30;99.90
25320;DHT22;13256;49.012;8.610;2023-01-09T11:20:46;9.30;99.90
25320;DHT22;13256;49.012;8.610;2023-01-09T11:23:29;9.30;99.90
25320;DHT22;13256;49.012;8.610;2023-01-09T11:25:59;9.40;99.90
25320;DHT22;13256;49.012;8.610;2023-01-09T11:29:05;9.40;99.90
25320;DHT22;13256;49.012;8.610;2023-01-09T11:31:36;9.40;99.90
25320;DHT22;13256;49.012;8.610;2023-01-09T11:34:33;9.40;99.90
25320;DHT22;13256;49.012;8.610;2023-01-09T11:37:07;9.30;99.90
25320;DHT22;13256;49.012;8.610;2023-01-09T11:39:43;9.20;99.90
25320;DHT22;13256;49.012;8.610;2023-01-09T11:42:26;9.20;99.90
25320;DHT22;13256;49.012;8.610;2023-01-09T11:45:22;9.10;99.90
25320;DHT22;13256;49.012;8.610;2023-01-09T11:47:52;9.00;99.90
25320;DHT22;13256;49.012;8.610;2023-01-09T11:50:29;8.80;99.90
25320;DHT22;13256;49.012;8.610;2023-01-09T11:53:16;8.70;99.90
25320;DHT22;13256;49.012;8.610;2023-01-09T11:55:55;8.50;99.90
25320;DHT22;13256;49.012;8.610;2023-01-09T11:58:23;8.40;99.90
25320;DHT22;13256;49.012;8.610;2023-01-09T12:03:58;8.30;99.90
25320;DHT22;13256;49.012;8.610;2023-01-09T12:06:43;8.30;99.90
25320;DHT22;13256;49.012;8.610;2023-01-09T12:09:39;8.30;99.90
25320;DHT22;13256;49.012;8.610;2023-01-09T12:21:19;8.40;99.90
25320;DHT22;13256;49.012;8.610;2023-01-09T12:23:58;8.40;99.90
25320;DHT22;13256;49.012;8.610;2023-01-09T12:33:11;8.50;99.90
25320;DHT22;13256;49.012;8.610;2023-01-09T12:35:40;8.60;99.90
25320;DHT22;13256;49.012;8.610;2023-01-09T12:41:19;8.50;99.90
25320;DHT22;13256;49.012;8.610;2023-01-09T12:44:15;8.50;99.90
25320;DHT22;13256;49.012;8.610;2023-01-09T12:52:27;8.40;99.90
25320;DHT22;13256;49.012;8.610;2023-01-09T12:55:10;8.30;99.90
25320;DHT22;13256;49.012;8.610;2023-01-09T12:57:45;8.30;99.90
25320;DHT22;13256;49.012;8.610;2023-01-09T13:00:21;8.30;99.90
25320;DHT22;13256;49.012;8.610;2023-01-09T13:05:46;8.40;99.90
25320;DHT22;13256;49.012;8.610;2023-01-09T13:11:11;8.40;99.90
25320;DHT22;13256;49.012;8.610;2023-01-09T13:14:01;8.40;99.90
25320;DHT22;13256;49.012;8.610;2023-01-09T13:16:35;8.40;99.90
25320;DHT22;13256;49.012;8.610;2023-01-09T13:19:23;8.40;99.90
25320;DHT22;13256;49.012;8.610;2023-01-09T13:21:51;8.30;99.90
25320;DHT22;13256;49.012;8.610;2023-01-09T13:24:36;8.30;99.90
25320;DHT22;13256;49.012;8.610;2023-01-09T13:27:14;8.20;99.90
25320;DHT22;13256;49.012;8.610;2023-01-09T13:29:48;8.20;99.90
25320;DHT22;13256;49.012;8.610;2023-01-09T13:34:48;8.20;99.90
25320;DHT22;13256;49.012;8.610;2023-01-09T13:37:25;8.20;99.90
25320;DHT22;13256;49.012;8.610;2023-01-09T13:40:00;8.20;99.90
25320;DHT22;13256;49.012;8.610;2023-01-09T13:42:28;8.30;99.90
25320;DHT22;13256;49.012;8.610;2023-01-09T13:45:26;8.30;99.90
25320;DHT22;13256;49.012;8.610;2023-01-09T13:50:40;8.30;99.90
25320;DHT22;13256;49.012;8.610;2023-01-09T14:04:36;8.30;99.90
25320;DHT22;13256;49.012;8.610;2023-01-09T14:07:22;8.30;99.90
25320;DHT22;13256;49.012;8.610;2023-01-09T14:10:02;8.20;99.90
25320;DHT22;13256;49.012;8.610;2023-01-09T14:12:38;8.20;99.90
25320;DHT22;13256;49.012;8.610;2023-01-09T14:15:30;8.20;99.90
25320;DHT22;13256;49.012;8.610;2023-01-09T14:18:45;8.20;99.90
25320;DHT22;13256;49.012;8.610;2023-01-09T14:20:57;8.20;99.90
25320;DHT22;13256;49.012;8.610;2023-01-09T14:23:37;8.10;99.90
25320;DHT22;13256;49.012;8.610;2023-01-09T14:29:38;8.10;99.90
25320;DHT22;13256;49.012;8.610;2023-01-09T14:35:18;8.00;99.90
25320;DHT22;13256;49.012;8.610;2023-01-09T14:37:54;7.90;99.90
25320;DHT22;13256;49.012;8.610;2023-01-09T14:40:23;7.80;99.90
25320;DHT22;13256;49.012;8.610;2023-01-09T14:42:54;7.50;99.90
25320;DHT22;13256;49.012;8.610;2023-01-09T14:45:26;7.40;99.90
25320;DHT22;13256;49.012;8.610;2023-01-09T14:48:03;7.30;99.90
25320;DHT22;13256;49.012;8.610;2023-01-09T14:50:50;7.10;99.90
25320;DHT22;13256;49.012;8.610;2023-01-09T14:53:27;7.00;99.90
25320;DHT22;13256;49.012;8.610;2023-01-09T14:56:01;6.90;99.90
25320;DHT22;13256;49.012;8.610;2023-01-09T14:58:36;6.80;99.90
25320;DHT22;13256;49.012;8.610;2023-01-09T15:01:21;6.80;99.90
25320;DHT22;13256;49.012;8.610;2023-01-09T15:03:56;6.80;99.90
25320;DHT22;13256;49.012;8.610;2023-01-09T15:06:34;6.80;99.90
25320;DHT22;13256;49.012;8.610;2023-01-09T15:09:06;6.80;99.90
25320;DHT22;13256;49.012;8.610;2023-01-09T15:11:38;6.80;99.90
25320;DHT22;13256;49.012;8.610;2023-01-09T15:16:59;6.70;99.90
25320;DHT22;13256;49.012;8.610;2023-01-09T15:19:30;6.80;99.90
25320;DHT22;13256;49.012;8.610;2023-01-09T15:24:29;6.70;99.90
25320;DHT22;13256;49.012;8.610;2023-01-09T15:27:02;6.70;99.90
25320;DHT22;13256;49.012;8.610;2023-01-09T15:29:31;6.70;99.90
25320;DHT22;13256;49.012;8.610;2023-01-09T15:32:03;6.70;99.90
25320;DHT22;13256;49.012;8.610;2023-01-09T15:34:30;6.60;99.90
25320;DHT22;13256;49.012;8.610;2023-01-09T15:37:00;6.60;99.90
25320;DHT22;13256;49.012;8.610;2023-01-09T15:39:36;6.60;99.90
25320;DHT22;13256;49.012;8.610;2023-01-09T15:42:43;6.50;99.90
25320;DHT22;13256;49.012;8.610;2023-01-09T15:50:48;6.50;99.90
25320;DHT22;13256;49.012;8.610;2023-01-09T15:53:23;6.40;99.90
25320;DHT22;13256;49.012;8.610;2023-01-09T15:56:16;6.40;99.90
25320;DHT22;13256;49.012;8.610;2023-01-09T15:58:50;6.40;99.90
25320;DHT22;13256;49.012;8.610;2023-01-09T16:06:41;6.40;99.90
25320;DHT22;13256;49.012;8.610;2023-01-09T16:09:27;6.30;99.90
25320;DHT22;13256;49.012;8.610;2023-01-09T16:11:59;6.30;99.90
25320;DHT22;13256;49.012;8.610;2023-01-09T16:17:01;6.30;99.90
25320;DHT22;13256;49.012;8.610;2023-01-09T16:19:31;6.30;99.90
25320;DHT22;13256;49.012;8.610;2023-01-09T16:22:00;6.30;99.90
25320;DHT22;13256;49.012;8.610;2023-01-09T16:24:38;6.30;99.90
25320;DHT22;13256;49.012;8.610;2023-01-09T16:27:21;6.30;99.90
25320;DHT22;13256;49.012;8.610;2023-01-09T16:29:51;6.30;99.90
25320;DHT22;13256;49.012;8.610;2023-01-09T16:32:29;6.30;99.90
25320;DHT22;13256;49.012;8.610;2023-01-09T16:35:12;6.30;99.90
25320;DHT22;13256;49.012;8.610;2023-01-09T16:37:40;6.30;99.90
25320;DHT22;13256;49.012;8.610;2023-01-09T16:42:46;6.30;99.90
25320;DHT22;13256;49.012;8.610;2023-01-09T16:45:38;6.30;99.90
25320;DHT22;13256;49.012;8.610;2023-01-09T16:48:10;6.40;99.90
25320;DHT22;13256;49.012;8.610;2023-01-09T16:50:37;6.40;99.90
25320;DHT22;13256;49.012;8.610;2023-01-09T16:53:15;6.40;99.90
25320;DHT22;13256;49.012;8.610;2023-01-09T16:55:44;6.40;99.90
25320;DHT22;13256;49.012;8.610;2023-01-09T16:58:29;6.50;99.90
25320;DHT22;13256;49.012;8.610;2023-01-09T17:00:57;6.40;99.90
25320;DHT22;13256;49.012;8.610;2023-01-09T17:03:24;6.50;99.90
25320;DHT22;13256;49.012;8.610;2023-01-09T17:05:54;6.50;99.90
25320;DHT22;13256;49.012;8.610;2023-01-09T17:08:41;6.40;99.90
25320;DHT22;13256;49.012;8.610;2023-01-09T17:11:19;6.50;99.90
25320;DHT22;13256;49.012;8.610;2023-01-09T17:13:46;6.40;99.90
25320;DHT22;13256;49.012;8.610;2023-01-09T17:16:16;6.50;99.90
25320;DHT22;13256;49.012;8.610;2023-01-09T17:18:44;6.50;99.90
25320;DHT22;13256;49.012;8.610;2023-01-09T17:21:22;6.50;99.90
25320;DHT22;13256;49.012;8.610;2023-01-09T17:23:50;6.50;99.90
25320;DHT22;13256;49.012;8.610;2023-01-09T17:26:42;6.50;99.90
25320;DHT22;13256;49.012;8.610;2023-01-09T17:29:39;6.50;99.90
25320;DHT22;13256;49.012;8.610;2023-01-09T17:32:06;6.50;99.90
25320;DHT22;13256;49.012;8.610;2023-01-09T17:34:35;6.50;99.90
25320;DHT22;13256;49.012;8.610;2023-01-09T17:37:03;6.50;99.90
25320;DHT22;13256;49.012;8.610;2023-01-09T17:39:32;6.50;99.90
25320;DHT22;13256;49.012;8.610;2023-01-09T17:42:02;6.40;99.90
25320;DHT22;13256;49.012;8.610;2023-01-09T17:44:34;6.40;99.90
25320;DHT22;13256;49.012;8.610;2023-01-09T17:47:05;6.40;99.90
25320;DHT22;13256;49.012;8.610;2023-01-09T17:49:37;6.40;99.90
25320;DHT22;13256;49.012;8.610;2023-01-09T17:52:07;6.30;99.90
25320;DHT22;13256;49.012;8.610;2023-01-09T17:54:34;6.30;99.90
25320;DHT22;13256;49.012;8.610;2023-01-09T17:57:03;6.30;99.90
25320;DHT22;13256;49.012;8.610;2023-01-09T17:59:34;6.30;99.90
25320;DHT22;13256;49.012;8.610;2023-01-09T18:02:03;6.30;99.90
25320;DHT22;13256;49.012;8.610;2023-01-09T18:04:30;6.20;99.90
25320;DHT22;13256;49.012;8.610;2023-01-09T18:06:57;6.20;99.90
25320;DHT22;13256;49.012;8.610;2023-01-09T18:09:23;6.20;99.90
25320;DHT22;13256;49.012;8.610;2023-01-09T18:12:18;6.20;99.90
25320;DHT22;13256;49.012;8.610;2023-01-09T18:14:48;6.10;99.90
25320;DHT22;13256;49.012;8.610;2023-01-09T18:17:19;6.10;99.90
25320;DHT22;13256;49.012;8.610;2023-01-09T18:19:48;6.10;99.90
25320;DHT22;13256;49.012;8.610;2023-01-09T18:22:15;6.10;99.90
25320;DHT22;13256;49.012;8.610;2023-01-09T18:24:44;6.10;99.90
25320;DHT22;13256;49.012;8.610;2023-01-09T18:27:11;6.10;99.90
25320;DHT22;13256;49.012;8.610;2023-01-09T18:29:40;6.10;99.90